Terminal Aerodrome Forecast
Issued by NWS Buffalo, NY

Home | Current Version | Previous Version | Text Only | Print | Product List | Glossary On
Versions: 1 2 3 4 5 6 7 8 9 10 11 12 13 14 15 16 17 18 19 20 21 22 23 24 25 26 27
959
FTUS41 KBUF 242120 AAB
TAFROC
TAF AMD
KROC 242120Z 2421/2518 28010KT 6SM -SHRA OVC040
      TEMPO 2422/2423 5SM -TSRA OVC040CB
     FM242300 27009KT P6SM VCSH BKN050
     FM250100 26006KT P6SM SCT250
     FM251200 24010G18KT P6SM SCT250
     FM251500 25014G21KT P6SM BKN045=

USA.gov is the U.S. government's official web portal to all federal, state and local government web resources and services.